Rauville, South Dakota
Current Conditions -  °F | °C
As of 8:53 PM on Sunday 21 Dec 2014 (Local Time) from KATY Reporting Station
Haze Haze  
Wind Chill: 25°   Ceiling: 500
Heat Index: 35°   Visibility: 6mi
Dew Point: 34°   Wind: 16mph
Humidity: 96%   Direction: 170°S
Pressure: 29.49"   Gusts: NA
Location:  44.9156°N, 97.1699°W
Report Text: KATY 220253Z AUTO 17014KT 6SM BR OVC005 02/01 A2949 RMK AO2 SLP002 T00170011 58009
Loading
Personal Weather Stations






























Interactive Weather Map New forecast layout! Learn more

10-Day Weather Forecast

Advertisements
Track Severe Weather on mobile